createdAt,value
2016-09-19T00:00:14.723Z,0
2016-09-19T00:01:25.019Z,0
2016-09-19T00:02:35.016Z,0
2016-09-19T00:03:44.996Z,0
2016-09-19T00:04:55.309Z,0
2016-09-19T00:06:05.281Z,0
2016-09-19T00:07:15.263Z,0
2016-09-19T00:08:25.554Z,0
2016-09-19T00:09:35.216Z,0
2016-09-19T00:10:45.502Z,0
2016-09-19T00:11:56.020Z,0
2016-09-19T00:13:06.296Z,0
2016-09-19T00:14:16.275Z,0
2016-09-19T00:15:26.555Z,0
2016-09-19T00:16:36.572Z,0
2016-09-19T00:17:46.538Z,0
2016-09-19T00:18:56.823Z,0
2016-09-19T00:20:07.097Z,0
2016-09-19T00:21:17.089Z,0
2016-09-19T00:22:27.080Z,0
2016-09-19T00:23:36.751Z,0
2016-09-19T00:24:47.028Z,0
2016-09-19T00:25:57.006Z,0
2016-09-19T00:27:06.992Z,0
2016-09-19T00:28:16.974Z,0
2016-09-19T00:29:26.940Z,0
2016-09-19T00:30:36.928Z,0
2016-09-19T00:31:46.894Z,0
2016-09-19T00:32:57.177Z,0
2016-09-19T00:34:07.466Z,0
2016-09-19T00:35:17.753Z,0
2016-09-19T00:36:27.735Z,0
2016-09-19T00:37:37.697Z,0
2016-09-19T00:38:47.974Z,0
2016-09-19T00:39:57.965Z,0
2016-09-19T00:41:07.938Z,0
2016-09-19T00:42:18.248Z,0
2016-09-19T00:43:28.535Z,0
2016-09-19T00:44:38.824Z,0
2016-09-19T00:45:49.118Z,0
2016-09-19T00:46:59.147Z,0
2016-09-19T00:48:09.125Z,0
2016-09-19T00:49:18.179Z,0
2016-09-19T00:50:28.456Z,0
2016-09-19T00:51:38.743Z,0
2016-09-19T00:52:49.024Z,0
2016-09-19T00:53:59.001Z,0
2016-09-19T00:55:08.674Z,0
2016-09-19T00:56:18.669Z,0
2016-09-19T00:57:28.960Z,0
2016-09-19T00:58:38.964Z,0
2016-09-19T00:59:48.944Z,0
2016-09-19T01:00:58.927Z,0
2016-09-19T01:02:09.231Z,0
2016-09-19T01:03:19.522Z,0
2016-09-19T01:04:29.811Z,0
2016-09-19T01:05:40.103Z,0
2016-09-19T01:06:50.385Z,0
2016-09-19T01:08:00.698Z,0
2016-09-19T01:09:11.009Z,0
2016-09-19T01:10:21.295Z,0
2016-09-19T01:11:31.586Z,0
2016-09-19T01:12:41.563Z,0
2016-09-19T01:13:51.840Z,0
2016-09-19T01:15:02.133Z,0
2016-09-19T01:16:12.430Z,0
2016-09-19T01:17:22.721Z,0
2016-09-19T01:18:32.736Z,0
2016-09-19T01:19:43.025Z,0
2016-09-19T01:20:52.695Z,0
2016-09-19T01:22:02.358Z,0
2016-09-19T01:23:12.358Z,0
2016-09-19T01:24:22.650Z,0
2016-09-19T01:25:32.323Z,0
2016-09-19T01:26:41.690Z,0
2016-09-19T01:27:51.672Z,0
2016-09-19T01:29:01.653Z,0
2016-09-19T01:30:11.949Z,0
2016-09-19T01:31:22.248Z,0
2016-09-19T01:32:31.914Z,0
2016-09-19T01:33:42.243Z,0
2016-09-19T01:34:52.220Z,0
2016-09-19T01:36:02.517Z,0
2016-09-19T01:37:12.189Z,0
2016-09-19T01:38:22.473Z,0
2016-09-19T01:39:32.139Z,0
2016-09-19T01:40:42.111Z,0
2016-09-19T01:41:52.092Z,0
2016-09-19T01:43:02.094Z,0
2016-09-19T01:44:12.075Z,0
2016-09-19T01:45:22.046Z,0
2016-09-19T01:46:31.713Z,0
2016-09-19T01:47:42.003Z,0
2016-09-19T01:48:51.996Z,0
2016-09-19T01:50:01.973Z,0
2016-09-19T01:51:11.961Z,0
2016-09-19T01:52:21.938Z,0
2016-09-19T01:53:31.905Z,0
2016-09-19T01:54:42.186Z,0
2016-09-19T01:55:52.478Z,0
2016-09-19T01:57:02.460Z,0
2016-09-19T01:58:12.740Z,0
2016-09-19T01:59:22.720Z,0
2016-09-19T02:00:32.093Z,0
2016-09-19T02:01:42.391Z,0
2016-09-19T02:02:52.684Z,0
2016-09-19T02:04:02.668Z,0
2016-09-19T02:05:12.650Z,0
2016-09-19T02:06:22.925Z,0
2016-09-19T02:07:33.213Z,0
2016-09-19T02:08:43.203Z,0
2016-09-19T02:09:53.491Z,0
2016-09-19T02:11:03.804Z,0
2016-09-19T02:12:13.491Z,0
2016-09-19T02:13:23.477Z,0
2016-09-19T02:14:33.769Z,0
2016-09-19T02:15:43.424Z,0
2016-09-19T02:16:53.711Z,0
2016-09-19T02:18:03.682Z,0
2016-09-19T02:19:13.370Z,0
2016-09-19T02:20:23.670Z,0
2016-09-19T02:21:33.655Z,0
2016-09-19T02:22:43.953Z,0
2016-09-19T02:23:53.933Z,0
2016-09-19T02:25:04.230Z,0
2016-09-19T02:26:13.907Z,0
2016-09-19T02:27:23.587Z,0
2016-09-19T02:28:33.883Z,0
2016-09-19T02:29:44.179Z,0
2016-09-19T02:30:54.147Z,0
2016-09-19T02:32:04.433Z,0
2016-09-19T02:33:13.816Z,0
2016-09-19T02:34:23.781Z,0
2016-09-19T02:35:34.073Z,0
2016-09-19T02:36:44.040Z,0
2016-09-19T02:37:54.337Z,0
2016-09-19T02:39:04.621Z,0
2016-09-19T02:40:14.614Z,0
2016-09-19T02:41:24.905Z,0
2016-09-19T02:42:35.194Z,0
2016-09-19T02:43:44.869Z,0
2016-09-19T02:44:55.156Z,0
2016-09-19T02:46:05.131Z,0
2016-09-19T02:47:15.120Z,0
2016-09-19T02:48:25.096Z,0
2016-09-19T02:49:35.381Z,0
2016-09-19T02:50:45.662Z,0
2016-09-19T02:51:55.037Z,0
2016-09-19T02:53:05.324Z,0
2016-09-19T02:54:15.302Z,0
2016-09-19T02:55:25.285Z,0
2016-09-19T02:56:35.579Z,0
2016-09-19T02:57:45.551Z,0
2016-09-19T02:58:55.518Z,0
2016-09-19T03:00:05.502Z,0
2016-09-19T03:32:35.798Z,0
2016-09-19T03:33:46.063Z,0
2016-09-19T03:34:56.330Z,0
2016-09-19T03:36:06.611Z,0
2016-09-19T03:37:16.592Z,0
2016-09-19T03:38:26.580Z,0
2016-09-19T03:39:36.562Z,0
2016-09-19T03:40:46.842Z,0
2016-09-19T03:41:57.111Z,0
2016-09-19T03:43:07.393Z,0
2016-09-19T03:44:17.677Z,0
2016-09-19T03:45:27.659Z,0
2016-09-19T03:46:37.346Z,0
2016-09-19T03:47:47.019Z,0
2016-09-19T03:48:57.363Z,0
2016-09-19T03:50:07.641Z,0
2016-09-19T03:51:17.924Z,0
2016-09-19T03:52:27.605Z,0
2016-09-19T03:53:37.891Z,0
2016-09-19T03:54:47.884Z,0
2016-09-19T03:55:58.157Z,0
2016-09-19T03:57:08.149Z,0
2016-09-19T03:58:18.123Z,0
2016-09-19T03:59:27.801Z,0
2016-09-19T04:00:38.101Z,0
2016-09-19T04:01:48.388Z,0
2016-09-19T04:02:58.666Z,0
2016-09-19T04:04:08.952Z,0
2016-09-19T04:05:18.617Z,0
2016-09-19T04:06:28.589Z,0
2016-09-19T04:07:38.877Z,0
2016-09-19T04:08:49.159Z,0
2016-09-19T04:09:59.432Z,0
2016-09-19T04:11:09.718Z,0
2016-09-19T04:12:19.689Z,0
2016-09-19T04:13:29.671Z,0
2016-09-19T04:14:39.646Z,0
2016-09-19T04:15:49.626Z,0
2016-09-19T04:16:59.924Z,0
2016-09-19T04:18:09.912Z,0
2016-09-19T04:19:19.883Z,0
2016-09-19T04:20:30.165Z,0
2016-09-19T04:21:40.137Z,0
2016-09-19T04:22:49.809Z,0
2016-09-19T04:23:59.783Z,0
2016-09-19T04:25:10.068Z,0
2016-09-19T04:26:19.436Z,0
2016-09-19T04:27:29.401Z,0
2016-09-19T04:28:39.383Z,0
2016-09-19T04:29:49.655Z,0
2016-09-19T04:30:59.648Z,0
2016-09-19T04:32:09.338Z,0
2016-09-19T04:33:19.313Z,0
2016-09-19T04:34:29.605Z,0
2016-09-19T04:35:39.909Z,0
2016-09-19T04:36:50.193Z,5
2016-09-19T04:37:59.865Z,5
2016-09-19T04:39:10.152Z,5
2016-09-19T04:40:20.129Z,5
2016-09-19T04:41:30.115Z,5
2016-09-19T04:42:40.417Z,5
2016-09-19T04:43:50.694Z,5
2016-09-19T04:45:00.678Z,10
2016-09-19T04:46:10.348Z,10
2016-09-19T04:47:20.334Z,10
2016-09-19T04:48:30.310Z,10
2016-09-19T04:49:40.654Z,10
2016-09-19T04:50:50.952Z,15
2016-09-19T04:52:00.625Z,15
2016-09-19T04:53:10.926Z,15
2016-09-19T04:54:20.908Z,15
2016-09-19T04:55:30.890Z,15
2016-09-19T04:56:40.873Z,20
2016-09-19T04:57:51.155Z,20
2016-09-19T04:59:01.432Z,20
2016-09-19T05:00:11.412Z,25
2016-09-19T05:01:21.700Z,25
2016-09-19T05:02:31.680Z,25
2016-09-19T05:03:41.983Z,25
2016-09-19T05:04:52.261Z,25
2016-09-19T05:06:01.622Z,25
2016-09-19T05:07:11.913Z,25
2016-09-19T05:08:22.201Z,30
2016-09-19T05:09:32.169Z,30
2016-09-19T05:10:42.464Z,30
2016-09-19T05:11:52.770Z,30
2016-09-19T05:13:02.762Z,35
2016-09-19T05:14:12.772Z,35
2016-09-19T05:15:23.055Z,35
2016-09-19T05:16:33.333Z,35
2016-09-19T05:17:43.013Z,35
2016-09-19T05:18:53.299Z,35
2016-09-19T05:20:03.278Z,40
2016-09-19T05:21:13.595Z,40
2016-09-19T05:22:23.280Z,40
2016-09-19T05:23:33.556Z,40
2016-09-19T05:24:43.545Z,40
2016-09-19T05:25:53.199Z,40
2016-09-19T05:27:03.181Z,40
2016-09-19T05:28:13.183Z,45
2016-09-19T05:29:23.167Z,45
2016-09-19T05:30:33.168Z,45
2016-09-19T05:31:43.156Z,45
2016-09-19T05:32:53.466Z,45
2016-09-19T05:34:03.138Z,50
2016-09-19T05:35:13.137Z,50
2016-09-19T05:36:22.801Z,50
2016-09-19T05:37:33.084Z,50
2016-09-19T05:38:43.073Z,50
2016-09-19T05:39:53.066Z,50
2016-09-19T05:41:02.757Z,55
2016-09-19T05:42:12.424Z,55
2016-09-19T05:43:22.426Z,60
2016-09-19T05:44:32.422Z,60
2016-09-19T05:45:42.405Z,60
2016-09-19T05:46:52.690Z,60
2016-09-19T05:48:02.672Z,65
2016-09-19T05:49:12.660Z,65
2016-09-19T05:50:22.041Z,70
2016-09-19T05:51:32.026Z,70
2016-09-19T05:52:41.385Z,70
2016-09-19T05:53:51.375Z,70
2016-09-19T05:55:01.349Z,75
2016-09-19T05:56:11.635Z,75
2016-09-19T05:57:21.322Z,80
2016-09-19T05:58:31.600Z,80
2016-09-19T05:59:41.270Z,80
2016-09-19T06:00:51.243Z,85
2016-09-19T06:02:01.217Z,90
2016-09-19T06:03:11.497Z,90
2016-09-19T06:04:21.500Z,90
2016-09-19T06:05:31.469Z,90
2016-09-19T06:06:41.445Z,95
2016-09-19T06:07:51.420Z,100
2016-09-19T06:09:01.699Z,105
2016-09-19T06:10:11.990Z,110
2016-09-19T06:11:22.281Z,115
2016-09-19T06:12:32.263Z,115
2016-09-19T06:13:42.250Z,120
2016-09-19T06:14:52.554Z,120
2016-09-19T06:16:02.535Z,120
2016-09-19T06:17:12.818Z,120
2016-09-19T06:18:22.494Z,120
2016-09-19T06:19:32.482Z,120
2016-09-19T06:20:42.474Z,120
2016-09-19T06:21:52.767Z,120
2016-09-19T06:23:02.429Z,125
2016-09-19T06:24:12.395Z,125
2016-09-19T06:25:22.690Z,125
2016-09-19T06:26:32.972Z,125
2016-09-19T06:27:43.269Z,125
2016-09-19T06:28:52.945Z,125
2016-09-19T06:30:02.609Z,125
2016-09-19T06:31:12.899Z,125
2016-09-19T06:32:22.566Z,130
2016-09-19T06:33:32.548Z,130
2016-09-19T06:34:42.526Z,130
2016-09-19T06:35:52.192Z,135
2016-09-19T06:37:02.181Z,135
2016-09-19T06:38:12.179Z,135
2016-09-19T06:39:22.157Z,135
2016-09-19T06:40:31.835Z,140
2016-09-19T06:41:42.124Z,140
2016-09-19T06:42:52.436Z,140
2016-09-19T06:44:02.433Z,140
2016-09-19T06:45:12.450Z,140
2016-09-19T06:46:22.737Z,140
2016-09-19T06:47:33.042Z,145
2016-09-19T06:48:43.335Z,145
2016-09-19T06:49:53.003Z,145
2016-09-19T06:51:02.979Z,150
2016-09-19T06:52:12.650Z,140
2016-09-19T06:53:22.632Z,140
2016-09-19T06:54:32.299Z,135
2016-09-19T06:55:42.292Z,135
2016-09-19T06:56:52.285Z,130
2016-09-19T06:58:02.269Z,125
2016-09-19T06:59:11.628Z,125
2016-09-19T07:00:21.637Z,120
2016-09-19T07:01:31.310Z,130
2016-09-19T07:02:41.299Z,135
2016-09-19T07:03:51.300Z,145
2016-09-19T07:05:01.584Z,145
2016-09-19T07:06:11.919Z,155
2016-09-19T07:07:22.219Z,150
2016-09-19T07:08:32.207Z,150
2016-09-19T07:09:42.188Z,150
2016-09-19T07:10:52.172Z,140
2016-09-19T07:12:02.465Z,140
2016-09-19T07:13:12.448Z,145
2016-09-19T07:14:22.422Z,150
2016-09-19T07:15:32.422Z,170
2016-09-19T07:16:42.092Z,175
2016-09-19T07:17:52.081Z,170
2016-09-19T07:19:02.057Z,170
2016-09-19T07:20:12.379Z,180
2016-09-19T07:21:22.356Z,180
2016-09-19T07:22:32.337Z,200
2016-09-19T07:23:42.638Z,185
2016-09-19T07:24:52.635Z,190
2016-09-19T07:26:02.927Z,170
2016-09-19T07:27:13.221Z,150
2016-09-19T07:28:23.500Z,140
2016-09-19T07:29:33.786Z,155
2016-09-19T07:30:43.774Z,170
2016-09-19T07:31:54.061Z,185
2016-09-19T07:33:03.738Z,195
2016-09-19T07:34:14.030Z,195
2016-09-19T07:35:24.032Z,185
2016-09-19T07:36:34.318Z,190
2016-09-19T07:37:44.619Z,195
2016-09-19T07:38:54.587Z,190
2016-09-19T07:40:04.587Z,170
2016-09-19T07:41:14.259Z,160
2016-09-19T07:42:24.255Z,170
2016-09-19T07:43:34.247Z,200
2016-09-19T07:44:44.542Z,185
2016-09-19T07:45:54.836Z,230
2016-09-19T07:47:04.833Z,240
2016-09-19T07:48:14.508Z,240
2016-09-19T07:49:24.180Z,250
2016-09-19T07:50:33.872Z,240
2016-09-19T07:51:44.178Z,215
2016-09-19T07:52:54.197Z,215
2016-09-19T07:54:04.178Z,205
2016-09-19T07:55:14.489Z,165
2016-09-19T07:56:24.472Z,145
2016-09-19T07:57:34.793Z,135
2016-09-19T07:58:44.792Z,135
2016-09-19T07:59:54.770Z,140
2016-09-19T08:01:04.758Z,150
2016-09-19T08:02:15.053Z,150
2016-09-19T08:03:25.347Z,170
2016-09-19T08:04:35.036Z,180
2016-09-19T08:05:45.329Z,205
2016-09-19T08:06:54.997Z,235
2016-09-19T08:08:04.993Z,220
2016-09-19T08:09:15.288Z,270
2016-09-19T08:10:24.961Z,250
2016-09-19T08:11:35.256Z,295
2016-09-19T08:12:45.253Z,245
2016-09-19T08:13:55.572Z,245
2016-09-19T08:15:05.563Z,205
2016-09-19T08:16:15.554Z,200
2016-09-19T08:17:25.826Z,215
2016-09-19T08:18:36.113Z,185
2016-09-19T08:19:45.483Z,170
2016-09-19T08:20:55.785Z,170
2016-09-19T08:22:05.773Z,165
2016-09-19T08:23:15.137Z,180
2016-09-19T08:24:24.807Z,220
2016-09-19T08:25:35.094Z,235
2016-09-19T08:26:45.379Z,260
2016-09-19T08:27:55.680Z,235
2016-09-19T08:29:05.973Z,255
2016-09-19T08:30:16.259Z,240
2016-09-19T08:31:25.615Z,245
2016-09-19T08:32:35.317Z,260
2016-09-19T08:33:44.996Z,265
2016-09-19T08:34:55.290Z,280
2016-09-19T08:36:05.279Z,290
2016-09-19T08:37:15.286Z,260
2016-09-19T08:38:25.580Z,295
2016-09-19T08:39:35.892Z,325
2016-09-19T08:40:45.580Z,340
2016-09-19T08:41:55.882Z,355
2016-09-19T08:43:05.555Z,345
2016-09-19T08:44:15.539Z,275
2016-09-19T08:45:25.540Z,275
2016-09-19T08:46:35.845Z,290
2016-09-19T08:47:46.145Z,350
2016-09-19T08:48:56.443Z,360
2016-09-19T08:50:06.424Z,340
2016-09-19T08:51:16.086Z,315
2016-09-19T08:52:26.127Z,330
2016-09-19T08:53:35.813Z,330
2016-09-19T08:54:45.803Z,310
2016-09-19T08:55:56.114Z,305
2016-09-19T08:57:06.410Z,300
2016-09-19T08:58:16.431Z,295
2016-09-19T08:59:26.121Z,290
2016-09-19T09:00:36.417Z,345
2016-09-19T09:01:46.701Z,350
2016-09-19T09:02:56.076Z,370
2016-09-19T09:04:06.365Z,360
2016-09-19T09:05:17.071Z,360
2016-09-19T09:06:27.367Z,375
2016-09-19T09:07:37.344Z,360
2016-09-19T09:08:47.362Z,335
2016-09-19T09:09:57.040Z,310
2016-09-19T09:11:07.037Z,350
2016-09-19T09:12:16.716Z,370
2016-09-19T09:13:26.710Z,345
2016-09-19T09:14:37.007Z,355
2016-09-19T09:15:46.998Z,305
2016-09-19T09:16:57.305Z,295
2016-09-19T09:18:06.978Z,295
2016-09-19T09:19:16.351Z,280
2016-09-19T09:20:26.649Z,290
2016-09-19T09:21:36.626Z,270
2016-09-19T09:22:46.322Z,340
2016-09-19T09:23:56.303Z,285
2016-09-19T09:25:06.300Z,370
2016-09-19T09:26:16.278Z,365
2016-09-19T09:27:26.245Z,310
2016-09-19T09:28:36.237Z,295
2016-09-19T09:29:46.534Z,380
2016-09-19T09:30:56.539Z,390
2016-09-19T09:32:06.839Z,385
2016-09-19T09:33:16.814Z,310
2016-09-19T09:34:26.796Z,310
2016-09-19T09:35:37.111Z,300
2016-09-19T09:36:47.098Z,300
2016-09-19T09:37:57.396Z,305
2016-09-19T09:39:07.692Z,345
2016-09-19T09:40:17.688Z,275
2016-09-19T09:41:27.680Z,265
2016-09-19T09:42:37.672Z,290
2016-09-19T09:43:47.658Z,365
2016-09-19T09:44:57.965Z,340
2016-09-19T09:46:07.663Z,305
2016-09-19T09:47:17.327Z,295
2016-09-19T09:48:27.008Z,285
2016-09-19T09:49:37.233Z,245
2016-09-19T09:50:47.228Z,255
2016-09-19T09:51:57.531Z,255
2016-09-19T09:53:07.523Z,270
2016-09-19T09:54:17.767Z,380
2016-09-19T09:55:27.468Z,375
2016-09-19T09:56:37.772Z,360
2016-09-19T09:57:47.439Z,235
2016-09-19T09:58:57.746Z,205
2016-09-19T10:00:08.036Z,225
2016-09-19T10:01:18.349Z,215
2016-09-19T10:02:28.325Z,215
2016-09-19T10:03:37.693Z,240
2016-09-19T10:04:47.066Z,225
2016-09-19T10:05:57.356Z,200
2016-09-19T10:07:07.036Z,215
2016-09-19T10:08:17.032Z,220
2016-09-19T10:09:26.103Z,235
2016-09-19T10:10:35.473Z,220
2016-09-19T10:11:45.154Z,195
2016-09-19T10:12:55.133Z,210
2016-09-19T10:14:05.438Z,210
2016-09-19T10:15:15.099Z,190
2016-09-19T10:16:25.098Z,200
2016-09-19T10:17:35.083Z,185
2016-09-19T10:18:45.075Z,155
2016-09-19T10:19:55.376Z,130
2016-09-19T10:21:04.744Z,110
2016-09-19T10:22:15.030Z,105
2016-09-19T10:23:24.397Z,120
2016-09-19T10:24:34.699Z,125
2016-09-19T10:25:44.391Z,115
2016-09-19T10:26:54.392Z,110
2016-09-19T10:28:04.684Z,130
2016-09-19T10:29:14.688Z,150
2016-09-19T10:30:24.376Z,150
2016-09-19T10:31:34.375Z,170
2016-09-19T10:32:44.057Z,180
2016-09-19T10:33:54.047Z,190
2016-09-19T10:35:03.726Z,205
2016-09-19T10:36:13.715Z,205
2016-09-19T10:37:23.398Z,195
2016-09-19T10:38:33.388Z,195
2016-09-19T10:39:43.077Z,215
2016-09-19T10:40:53.372Z,230
2016-09-19T10:42:03.649Z,225
2016-09-19T10:43:13.645Z,210
2016-09-19T10:44:23.648Z,190
2016-09-19T10:45:33.954Z,180
2016-09-19T10:46:44.246Z,175
2016-09-19T10:47:53.932Z,175
2016-09-19T10:49:04.244Z,175
2016-09-19T10:50:14.251Z,170
2016-09-19T10:51:24.538Z,160
2016-09-19T10:52:34.843Z,170
2016-09-19T10:53:44.831Z,185
2016-09-19T10:54:54.814Z,185
2016-09-19T10:56:04.785Z,190
2016-09-19T10:57:15.086Z,200
2016-09-19T10:58:24.138Z,200
2016-09-19T10:59:34.434Z,190
2016-09-19T11:00:44.113Z,200
2016-09-19T11:01:54.110Z,255
2016-09-19T11:03:03.808Z,265
2016-09-19T11:04:13.484Z,285
2016-09-19T11:05:23.813Z,265
2016-09-19T11:06:34.134Z,345
2016-09-19T11:07:44.435Z,375
2016-09-19T11:08:54.753Z,330
2016-09-19T11:10:04.753Z,325
2016-09-19T11:11:14.450Z,320
2016-09-19T11:12:24.452Z,290
2016-09-19T11:13:34.153Z,280
2016-09-19T11:14:44.146Z,260
2016-09-19T11:15:54.439Z,320
2016-09-19T11:17:04.440Z,295
2016-09-19T11:18:14.717Z,290
2016-09-19T11:19:24.721Z,340
2016-09-19T11:20:35.014Z,345
2016-09-19T11:21:44.391Z,350
2016-09-19T11:22:54.080Z,285
2016-09-19T11:24:04.057Z,280
2016-09-19T11:25:14.055Z,295
2016-09-19T11:26:24.072Z,260
2016-09-19T11:27:33.751Z,330
2016-09-19T11:28:44.061Z,310
2016-09-19T11:29:54.382Z,315
2016-09-19T11:31:04.371Z,380
2016-09-19T11:32:14.063Z,385
2016-09-19T11:33:24.382Z,410
2016-09-19T11:34:34.688Z,425
2016-09-19T11:35:44.056Z,385
2016-09-19T11:36:54.371Z,345
2016-09-19T11:38:04.688Z,320
2016-09-19T11:39:14.692Z,335
2016-09-19T11:40:24.699Z,330
2016-09-19T11:41:34.678Z,285
2016-09-19T11:42:44.662Z,290
2016-09-19T11:43:54.957Z,285
2016-09-19T11:45:05.248Z,315
2016-09-19T11:46:15.249Z,290
2016-09-19T11:47:24.630Z,275
2016-09-19T11:49:44.235Z,350
2016-09-19T11:50:54.233Z,320
2016-09-19T11:52:04.528Z,275
2016-09-19T11:53:14.550Z,295
2016-09-19T11:54:24.559Z,360
2016-09-19T11:55:34.244Z,310
2016-09-19T11:56:44.555Z,255
2016-09-19T11:57:54.859Z,245
2016-09-19T11:59:05.149Z,265
2016-09-19T12:00:15.447Z,320
2016-09-19T12:01:24.826Z,220
2016-09-19T12:02:35.154Z,200
2016-09-19T12:03:45.146Z,190
2016-09-19T12:04:54.513Z,215
2016-09-19T12:06:04.819Z,305
2016-09-19T12:07:14.810Z,300
2016-09-19T12:08:24.795Z,300
2016-09-19T12:09:34.779Z,310
2016-09-19T12:10:44.451Z,325
2016-09-19T12:11:54.757Z,330
2016-09-19T12:13:04.440Z,290
2016-09-19T12:14:14.735Z,335
2016-09-19T12:15:24.419Z,215
2016-09-19T12:16:34.725Z,305
2016-09-19T12:17:44.707Z,310
2016-09-19T12:18:54.688Z,330
2016-09-19T12:20:04.696Z,305
2016-09-19T12:21:15.016Z,315
2016-09-19T12:22:25.313Z,335
2016-09-19T12:23:35.305Z,335
2016-09-19T12:24:45.318Z,335
2016-09-19T12:25:55.614Z,335
2016-09-19T12:27:05.286Z,330
2016-09-19T12:28:14.971Z,325
2016-09-19T12:29:24.660Z,305
2016-09-19T12:30:34.639Z,300
2016-09-19T12:31:44.957Z,300
2016-09-19T12:32:54.953Z,305
2016-09-19T12:34:04.941Z,310
2016-09-19T12:35:15.267Z,305
2016-09-19T12:36:25.264Z,310
2016-09-19T12:37:35.262Z,270
2016-09-19T12:38:45.562Z,325
2016-09-19T12:39:55.539Z,330
2016-09-19T12:41:05.831Z,325
2016-09-19T12:42:15.822Z,360
2016-09-19T12:43:25.815Z,330
2016-09-19T12:44:35.502Z,275
2016-09-19T12:45:45.807Z,330
2016-09-19T12:46:55.824Z,255
2016-09-19T12:48:06.117Z,220
2016-09-19T12:49:16.107Z,265
2016-09-19T12:50:26.089Z,245
2016-09-19T12:51:35.770Z,305
2016-09-19T12:52:46.078Z,295
2016-09-19T12:53:56.076Z,255
2016-09-19T12:55:06.122Z,225
2016-09-19T12:56:16.109Z,215
2016-09-19T12:57:26.093Z,250
2016-09-19T12:58:36.397Z,205
2016-09-19T12:59:46.678Z,210
2016-09-19T13:00:56.669Z,220
2016-09-19T13:02:06.973Z,220
2016-09-19T13:03:16.659Z,250
2016-09-19T13:04:26.665Z,210
2016-09-19T13:05:36.977Z,190
2016-09-19T13:06:46.962Z,165
2016-09-19T13:07:56.966Z,160
2016-09-19T13:09:06.956Z,145
2016-09-19T13:10:16.965Z,110
2016-09-19T13:11:27.259Z,85
2016-09-19T13:12:37.552Z,80
2016-09-19T13:13:47.534Z,80
2016-09-19T13:14:57.830Z,80
2016-09-19T13:16:07.816Z,95
2016-09-19T13:17:18.120Z,105
2016-09-19T13:18:27.795Z,120
2016-09-19T13:19:38.118Z,125
2016-09-19T13:20:48.448Z,125
2016-09-19T13:21:58.138Z,120
2016-09-19T13:23:08.448Z,115
2016-09-19T13:24:18.755Z,110
2016-09-19T13:25:28.455Z,95
2016-09-19T13:26:38.151Z,85
2016-09-19T13:27:47.827Z,80
2016-09-19T13:28:57.816Z,75
2016-09-19T13:30:07.820Z,70
2016-09-19T13:31:17.807Z,65
2016-09-19T13:32:28.106Z,60
2016-09-19T13:33:38.096Z,50
2016-09-19T13:34:48.394Z,45
2016-09-19T13:35:58.090Z,40
2016-09-19T13:37:08.083Z,35
2016-09-19T13:38:18.054Z,30
2016-09-19T13:39:28.350Z,30
2016-09-19T13:40:38.027Z,35
2016-09-19T13:41:48.329Z,40
2016-09-19T13:42:58.010Z,40
2016-09-19T13:44:08.298Z,30
2016-09-19T13:45:18.274Z,30
2016-09-19T13:46:27.944Z,25
2016-09-19T13:47:37.627Z,25
2016-09-19T13:48:47.914Z,25
2016-09-19T13:49:58.206Z,30
2016-09-19T13:51:08.223Z,40
2016-09-19T13:52:17.909Z,50
2016-09-19T13:53:28.210Z,55
2016-09-19T13:54:38.203Z,60
2016-09-19T13:55:48.202Z,65
2016-09-19T13:56:58.198Z,75
2016-09-19T13:58:07.561Z,80
2016-09-19T13:59:17.543Z,80
2016-09-19T14:00:26.920Z,80
2016-09-19T14:01:37.217Z,80
2016-09-19T14:02:46.888Z,70
2016-09-19T14:03:56.796Z,65
2016-09-19T14:05:06.542Z,60
2016-09-19T14:06:16.219Z,65
2016-09-19T14:07:26.521Z,65
2016-09-19T14:08:36.511Z,75
2016-09-19T14:09:46.804Z,90
2016-09-19T14:10:56.796Z,105
2016-09-19T14:12:06.477Z,105
2016-09-19T14:13:16.784Z,105
2016-09-19T14:14:26.773Z,110
2016-09-19T14:15:36.450Z,115
2016-09-19T14:16:46.435Z,115
2016-09-19T14:17:56.108Z,110
2016-09-19T14:19:06.421Z,95
2016-09-19T14:20:16.402Z,95
2016-09-19T14:21:26.383Z,95
2016-09-19T14:22:36.069Z,95
2016-09-19T14:23:46.076Z,105
2016-09-19T14:24:56.057Z,125
2016-09-19T14:26:06.048Z,135
2016-09-19T14:27:15.735Z,140
2016-09-19T14:28:25.441Z,145
2016-09-19T14:29:35.728Z,145
2016-09-19T14:30:45.762Z,140
2016-09-19T14:31:56.058Z,130
2016-09-19T14:33:06.060Z,125
2016-09-19T14:34:16.076Z,120
2016-09-19T14:35:26.388Z,110
2016-09-19T14:36:36.060Z,100
2016-09-19T14:37:45.755Z,90
2016-09-19T14:38:55.749Z,90
2016-09-19T14:40:05.728Z,90
2016-09-19T14:41:16.066Z,90
2016-09-19T14:42:26.376Z,90
2016-09-19T14:43:36.681Z,90
2016-09-19T14:44:46.976Z,95
2016-09-19T14:45:56.973Z,95
2016-09-19T14:47:06.964Z,95
2016-09-19T14:48:17.430Z,95
2016-09-19T14:49:27.429Z,90
2016-09-19T14:50:37.725Z,85
2016-09-19T14:51:47.731Z,85
2016-09-19T14:52:57.127Z,85
2016-09-19T14:54:07.105Z,85
2016-09-19T14:55:17.422Z,85
2016-09-19T14:56:27.705Z,75
2016-09-19T14:57:38.010Z,65
2016-09-19T14:58:48.302Z,60
2016-09-19T14:59:58.288Z,55
2016-09-19T15:01:08.275Z,55
2016-09-19T15:02:18.261Z,50
2016-09-19T15:03:28.553Z,50
2016-09-19T15:04:38.855Z,50
2016-09-19T15:05:48.546Z,60
2016-09-19T15:06:58.228Z,55
2016-09-19T15:08:07.907Z,60
2016-09-19T15:09:17.896Z,70
2016-09-19T15:10:28.188Z,75
2016-09-19T15:11:38.492Z,75
2016-09-19T15:12:48.501Z,70
2016-09-19T15:13:58.180Z,65
2016-09-19T15:15:08.191Z,60
2016-09-19T15:16:17.862Z,50
2016-09-19T15:17:27.540Z,45
2016-09-19T15:18:37.246Z,45
2016-09-19T15:19:47.240Z,40
2016-09-19T15:20:57.566Z,40
2016-09-19T15:22:07.559Z,40
2016-09-19T15:23:17.546Z,35
2016-09-19T15:24:27.249Z,30
2016-09-19T15:25:37.542Z,25
2016-09-19T15:26:47.840Z,25
2016-09-19T15:27:57.847Z,25
2016-09-19T15:29:08.161Z,25
2016-09-19T15:30:18.151Z,25
2016-09-19T15:31:28.434Z,20
2016-09-19T15:32:38.734Z,20
2016-09-19T15:33:49.049Z,15
2016-09-19T15:34:59.028Z,15
2016-09-19T15:36:09.029Z,20
2016-09-19T15:37:19.321Z,20
2016-09-19T15:38:29.608Z,20
2016-09-19T15:39:39.627Z,25
2016-09-19T15:40:49.297Z,25
2016-09-19T15:41:59.270Z,25
2016-09-19T15:43:08.935Z,25
2016-09-19T15:44:18.622Z,25
2016-09-19T15:45:28.908Z,20
2016-09-19T15:46:39.202Z,20
2016-09-19T15:47:49.181Z,20
2016-09-19T15:48:59.459Z,25
2016-09-19T15:50:09.150Z,25
2016-09-19T15:51:18.844Z,25
2016-09-19T15:52:28.834Z,25
2016-09-19T15:53:39.145Z,25
2016-09-19T15:54:49.440Z,20
2016-09-19T15:55:59.433Z,20
2016-09-19T15:57:09.170Z,15
2016-09-19T15:58:19.177Z,15
2016-09-19T15:59:29.487Z,10
2016-09-19T16:00:39.798Z,10
2016-09-19T16:01:49.780Z,5
2016-09-19T16:03:00.064Z,5
2016-09-19T16:04:10.377Z,5
2016-09-19T16:05:19.458Z,5
2016-09-19T16:06:29.134Z,5
2016-09-19T16:07:38.816Z,5
2016-09-19T16:08:48.802Z,5
2016-09-19T16:09:59.096Z,5
2016-09-19T16:11:09.409Z,5
2016-09-19T16:12:19.393Z,10
2016-09-19T16:13:29.705Z,10
2016-09-19T16:14:39.376Z,10
2016-09-19T16:15:49.055Z,10
2016-09-19T16:16:58.734Z,10
2016-09-19T16:18:08.718Z,10
2016-09-19T16:19:18.408Z,10
2016-09-19T16:20:28.701Z,5
2016-09-19T16:21:39.007Z,5
2016-09-19T16:22:49.013Z,5
2016-09-19T16:23:59.329Z,5
2016-09-19T16:25:09.026Z,5
2016-09-19T16:26:19.012Z,5
2016-09-19T16:27:28.996Z,5
2016-09-19T16:28:39.291Z,5
2016-09-19T16:29:49.592Z,0
2016-09-19T16:30:59.886Z,0
2016-09-19T16:32:09.884Z,0
2016-09-19T16:33:20.193Z,0
2016-09-19T16:34:30.195Z,0
2016-09-19T16:35:39.871Z,0
2016-09-19T16:36:49.871Z,5
2016-09-19T16:37:59.570Z,5
2016-09-19T16:39:09.557Z,5
2016-09-19T16:40:19.240Z,5
2016-09-19T16:41:29.531Z,5
2016-09-19T16:42:39.227Z,0
2016-09-19T16:43:48.919Z,0
2016-09-19T16:44:58.606Z,0
2016-09-19T16:46:08.908Z,0
2016-09-19T16:47:19.221Z,0
2016-09-19T16:48:29.522Z,0
2016-09-19T16:49:39.523Z,0
2016-09-19T16:50:49.748Z,0
2016-09-19T16:51:59.437Z,0
2016-09-19T16:53:09.414Z,0
2016-09-19T16:54:19.090Z,0
2016-09-19T16:55:29.081Z,0
2016-09-19T16:56:39.392Z,0
2016-09-19T16:57:48.772Z,0
2016-09-19T16:58:58.748Z,0
2016-09-19T17:00:08.757Z,0
2016-09-19T17:01:18.746Z,0
2016-09-19T17:02:28.763Z,0
2016-09-19T17:03:38.754Z,0
2016-09-19T17:04:48.436Z,0
2016-09-19T17:05:58.427Z,0